sensor_id;sensor_type;location;lat;lon;timestamp;P1;durP1;ratioP1;P2;durP2;ratioP2
21611;SDS011;47005;52.292;13.452;2023-06-05T00:02:11;3.53;;;2.07;;
21611;SDS011;47005;52.292;13.452;2023-06-05T00:04:37;4.40;;;1.70;;
21611;SDS011;47005;52.292;13.452;2023-06-05T00:07:04;3.80;;;1.63;;
21611;SDS011;47005;52.292;13.452;2023-06-05T00:09:30;2.50;;;1.67;;
21611;SDS011;47005;52.292;13.452;2023-06-05T00:11:56;15.38;;;8.05;;
21611;SDS011;47005;52.292;13.452;2023-06-05T00:14:22;25.67;;;15.73;;
21611;SDS011;47005;52.292;13.452;2023-06-05T00:16:48;21.52;;;10.73;;
21611;SDS011;47005;52.292;13.452;2023-06-05T00:19:16;20.98;;;7.22;;
21611;SDS011;47005;52.292;13.452;2023-06-05T00:21:42;13.70;;;7.10;;
21611;SDS011;47005;52.292;13.452;2023-06-05T00:24:07;15.02;;;8.23;;
21611;SDS011;47005;52.292;13.452;2023-06-05T00:26:33;12.00;;;7.22;;
21611;SDS011;47005;52.292;13.452;2023-06-05T00:28:59;15.38;;;8.10;;
21611;SDS011;47005;52.292;13.452;2023-06-05T00:31:24;17.03;;;9.57;;
21611;SDS011;47005;52.292;13.452;2023-06-05T00:33:50;16.52;;;8.85;;
21611;SDS011;47005;52.292;13.452;2023-06-05T00:36:16;19.23;;;10.23;;
21611;SDS011;47005;52.292;13.452;2023-06-05T00:38:44;20.00;;;11.80;;
21611;SDS011;47005;52.292;13.452;2023-06-05T00:41:10;23.40;;;12.13;;
21611;SDS011;47005;52.292;13.452;2023-06-05T00:43:36;22.50;;;13.13;;
21611;SDS011;47005;52.292;13.452;2023-06-05T00:46:03;22.83;;;12.03;;
21611;SDS011;47005;52.292;13.452;2023-06-05T00:48:30;37.10;;;16.60;;
21611;SDS011;47005;52.292;13.452;2023-06-05T00:50:58;31.63;;;17.23;;
21611;SDS011;47005;52.292;13.452;2023-06-05T00:53:24;29.80;;;15.03;;
21611;SDS011;47005;52.292;13.452;2023-06-05T00:55:50;41.73;;;18.07;;
21611;SDS011;47005;52.292;13.452;2023-06-05T00:58:16;40.57;;;20.07;;
21611;SDS011;47005;52.292;13.452;2023-06-05T01:00:43;36.30;;;18.47;;
21611;SDS011;47005;52.292;13.452;2023-06-05T01:03:09;37.57;;;19.20;;
21611;SDS011;47005;52.292;13.452;2023-06-05T01:05:36;41.47;;;20.10;;
21611;SDS011;47005;52.292;13.452;2023-06-05T01:08:02;44.93;;;20.37;;
21611;SDS011;47005;52.292;13.452;2023-06-05T01:10:30;35.70;;;16.87;;
21611;SDS011;47005;52.292;13.452;2023-06-05T01:15:41;32.33;;;16.00;;
21611;SDS011;47005;52.292;13.452;2023-06-05T01:18:07;44.43;;;20.37;;
21611;SDS011;47005;52.292;13.452;2023-06-05T01:20:34;23.37;;;13.40;;
21611;SDS011;47005;52.292;13.452;2023-06-05T01:23:04;19.97;;;11.20;;
21611;SDS011;47005;52.292;13.452;2023-06-05T01:25:31;21.17;;;10.77;;
21611;SDS011;47005;52.292;13.452;2023-06-05T01:30:54;13.00;;;7.03;;
21611;SDS011;47005;52.292;13.452;2023-06-05T01:33:40;8.07;;;4.90;;
21611;SDS011;47005;52.292;13.452;2023-06-05T01:36:15;8.83;;;4.43;;
21611;SDS011;47005;52.292;13.452;2023-06-05T01:38:41;11.23;;;5.97;;
21611;SDS011;47005;52.292;13.452;2023-06-05T01:41:08;30.23;;;11.17;;
21611;SDS011;47005;52.292;13.452;2023-06-05T01:43:35;43.63;;;19.97;;
21611;SDS011;47005;52.292;13.452;2023-06-05T01:46:03;41.60;;;18.30;;
21611;SDS011;47005;52.292;13.452;2023-06-05T01:48:32;31.50;;;14.80;;
21611;SDS011;47005;52.292;13.452;2023-06-05T01:51:02;30.73;;;13.53;;
21611;SDS011;47005;52.292;13.452;2023-06-05T01:53:27;31.77;;;14.60;;
21611;SDS011;47005;52.292;13.452;2023-06-05T01:55:54;32.03;;;12.77;;
21611;SDS011;47005;52.292;13.452;2023-06-05T01:58:27;19.53;;;7.53;;
21611;SDS011;47005;52.292;13.452;2023-06-05T02:00:53;11.27;;;5.73;;
21611;SDS011;47005;52.292;13.452;2023-06-05T02:03:21;18.20;;;7.70;;
21611;SDS011;47005;52.292;13.452;2023-06-05T02:05:48;19.47;;;9.10;;
21611;SDS011;47005;52.292;13.452;2023-06-05T02:08:13;29.90;;;12.00;;
21611;SDS011;47005;52.292;13.452;2023-06-05T02:10:44;25.33;;;10.60;;
21611;SDS011;47005;52.292;13.452;2023-06-05T02:13:10;31.57;;;10.80;;
21611;SDS011;47005;52.292;13.452;2023-06-05T02:15:36;11.57;;;5.87;;
21611;SDS011;47005;52.292;13.452;2023-06-05T02:18:02;8.27;;;4.20;;
21611;SDS011;47005;52.292;13.452;2023-06-05T02:20:29;10.57;;;3.73;;
21611;SDS011;47005;52.292;13.452;2023-06-05T02:22:56;12.53;;;4.60;;
21611;SDS011;47005;52.292;13.452;2023-06-05T02:25:22;7.20;;;4.13;;
21611;SDS011;47005;52.292;13.452;2023-06-05T02:27:51;8.90;;;4.87;;
21611;SDS011;47005;52.292;13.452;2023-06-05T02:30:18;12.57;;;4.13;;
21611;SDS011;47005;52.292;13.452;2023-06-05T02:32:44;6.70;;;3.50;;
21611;SDS011;47005;52.292;13.452;2023-06-05T02:35:10;10.17;;;4.77;;
21611;SDS011;47005;52.292;13.452;2023-06-05T02:37:37;11.20;;;5.07;;
21611;SDS011;47005;52.292;13.452;2023-06-05T02:40:09;11.80;;;5.73;;
21611;SDS011;47005;52.292;13.452;2023-06-05T02:42:36;12.37;;;5.73;;
21611;SDS011;47005;52.292;13.452;2023-06-05T02:45:02;12.63;;;5.50;;
21611;SDS011;47005;52.292;13.452;2023-06-05T02:47:29;12.80;;;5.70;;
21611;SDS011;47005;52.292;13.452;2023-06-05T02:49:55;14.53;;;6.03;;
21611;SDS011;47005;52.292;13.452;2023-06-05T02:52:21;6.97;;;3.63;;
21611;SDS011;47005;52.292;13.452;2023-06-05T02:54:47;4.60;;;2.60;;
21611;SDS011;47005;52.292;13.452;2023-06-05T02:57:13;6.20;;;2.83;;
21611;SDS011;47005;52.292;13.452;2023-06-05T02:59:40;9.50;;;4.90;;
21611;SDS011;47005;52.292;13.452;2023-06-05T03:02:06;6.20;;;3.43;;
21611;SDS011;47005;52.292;13.452;2023-06-05T03:04:32;11.93;;;5.80;;
21611;SDS011;47005;52.292;13.452;2023-06-05T03:06:57;12.73;;;6.07;;
21611;SDS011;47005;52.292;13.452;2023-06-05T03:09:29;11.80;;;5.87;;
21611;SDS011;47005;52.292;13.452;2023-06-05T03:11:56;9.63;;;5.07;;
21611;SDS011;47005;52.292;13.452;2023-06-05T03:14:22;8.10;;;4.70;;
21611;SDS011;47005;52.292;13.452;2023-06-05T03:16:47;10.53;;;5.50;;
21611;SDS011;47005;52.292;13.452;2023-06-05T03:19:13;8.50;;;4.50;;
21611;SDS011;47005;52.292;13.452;2023-06-05T03:21:39;6.23;;;2.93;;
21611;SDS011;47005;52.292;13.452;2023-06-05T03:24:08;6.17;;;2.90;;
21611;SDS011;47005;52.292;13.452;2023-06-05T03:26:39;5.77;;;2.60;;
21611;SDS011;47005;52.292;13.452;2023-06-05T03:29:06;6.07;;;2.83;;
21611;SDS011;47005;52.292;13.452;2023-06-05T03:31:32;4.50;;;2.40;;
21611;SDS011;47005;52.292;13.452;2023-06-05T03:33:58;5.50;;;2.63;;
21611;SDS011;47005;52.292;13.452;2023-06-05T03:36:25;6.40;;;3.23;;
21611;SDS011;47005;52.292;13.452;2023-06-05T03:38:54;4.23;;;1.90;;
21611;SDS011;47005;52.292;13.452;2023-06-05T03:41:21;3.33;;;1.87;;
21611;SDS011;47005;52.292;13.452;2023-06-05T03:43:47;5.43;;;1.70;;
21611;SDS011;47005;52.292;13.452;2023-06-05T03:46:14;5.03;;;2.53;;
21611;SDS011;47005;52.292;13.452;2023-06-05T03:48:46;3.27;;;1.73;;
21611;SDS011;47005;52.292;13.452;2023-06-05T03:51:14;4.13;;;1.97;;
21611;SDS011;47005;52.292;13.452;2023-06-05T03:53:43;4.20;;;1.70;;
21611;SDS011;47005;52.292;13.452;2023-06-05T03:56:09;4.00;;;1.90;;
21611;SDS011;47005;52.292;13.452;2023-06-05T03:58:37;3.30;;;1.97;;
21611;SDS011;47005;52.292;13.452;2023-06-05T04:01:04;3.33;;;1.73;;
21611;SDS011;47005;52.292;13.452;2023-06-05T04:03:30;3.37;;;2.27;;
21611;SDS011;47005;52.292;13.452;2023-06-05T04:05:57;5.50;;;2.17;;
21611;SDS011;47005;52.292;13.452;2023-06-05T04:08:22;4.83;;;2.70;;
21611;SDS011;47005;52.292;13.452;2023-06-05T04:10:49;8.07;;;2.23;;
21611;SDS011;47005;52.292;13.452;2023-06-05T04:13:15;3.20;;;1.77;;
21611;SDS011;47005;52.292;13.452;2023-06-05T04:15:41;6.80;;;2.00;;
21611;SDS011;47005;52.292;13.452;2023-06-05T04:18:09;3.47;;;1.67;;
21611;SDS011;47005;52.292;13.452;2023-06-05T04:20:35;3.30;;;2.00;;
21611;SDS011;47005;52.292;13.452;2023-06-05T04:23:00;2.77;;;1.80;;
21611;SDS011;47005;52.292;13.452;2023-06-05T04:25:26;4.40;;;1.90;;
21611;SDS011;47005;52.292;13.452;2023-06-05T04:27:54;4.00;;;1.47;;
21611;SDS011;47005;52.292;13.452;2023-06-05T04:30:21;2.57;;;1.53;;
21611;SDS011;47005;52.292;13.452;2023-06-05T04:32:46;4.20;;;2.20;;
21611;SDS011;47005;52.292;13.452;2023-06-05T04:35:19;4.67;;;2.30;;
21611;SDS011;47005;52.292;13.452;2023-06-05T04:37:45;4.67;;;2.30;;
21611;SDS011;47005;52.292;13.452;2023-06-05T04:40:11;4.60;;;2.20;;
21611;SDS011;47005;52.292;13.452;2023-06-05T04:42:37;8.37;;;2.60;;
21611;SDS011;47005;52.292;13.452;2023-06-05T04:45:03;6.17;;;2.87;;
21611;SDS011;47005;52.292;13.452;2023-06-05T04:47:35;8.63;;;3.70;;
21611;SDS011;47005;52.292;13.452;2023-06-05T04:50:02;6.97;;;3.60;;
21611;SDS011;47005;52.292;13.452;2023-06-05T04:52:30;4.93;;;2.73;;
21611;SDS011;47005;52.292;13.452;2023-06-05T04:54:56;5.40;;;2.60;;
21611;SDS011;47005;52.292;13.452;2023-06-05T04:57:26;4.60;;;2.20;;
21611;SDS011;47005;52.292;13.452;2023-06-05T04:59:53;4.40;;;2.40;;
21611;SDS011;47005;52.292;13.452;2023-06-05T05:02:19;4.43;;;2.13;;
21611;SDS011;47005;52.292;13.452;2023-06-05T05:04:45;5.38;;;2.20;;
21611;SDS011;47005;52.292;13.452;2023-06-05T05:07:11;3.45;;;2.05;;
21611;SDS011;47005;52.292;13.452;2023-06-05T05:09:40;13.43;;;1.83;;
21611;SDS011;47005;52.292;13.452;2023-06-05T05:12:07;3.90;;;1.83;;
21611;SDS011;47005;52.292;13.452;2023-06-05T05:14:33;4.90;;;1.93;;
21611;SDS011;47005;52.292;13.452;2023-06-05T05:16:58;3.40;;;2.03;;
21611;SDS011;47005;52.292;13.452;2023-06-05T05:19:26;3.50;;;1.60;;
21611;SDS011;47005;52.292;13.452;2023-06-05T05:21:52;8.15;;;2.30;;
21611;SDS011;47005;52.292;13.452;2023-06-05T05:24:18;3.10;;;1.73;;
21611;SDS011;47005;52.292;13.452;2023-06-05T05:26:43;6.37;;;2.07;;
21611;SDS011;47005;52.292;13.452;2023-06-05T05:29:09;3.03;;;1.50;;
21611;SDS011;47005;52.292;13.452;2023-06-05T05:31:35;2.97;;;1.88;;
21611;SDS011;47005;52.292;13.452;2023-06-05T05:34:01;6.75;;;2.03;;
21611;SDS011;47005;52.292;13.452;2023-06-05T05:36:27;3.47;;;1.90;;
21611;SDS011;47005;52.292;13.452;2023-06-05T05:38:55;5.30;;;1.88;;
21611;SDS011;47005;52.292;13.452;2023-06-05T05:41:21;2.78;;;1.50;;
21611;SDS011;47005;52.292;13.452;2023-06-05T05:43:47;2.65;;;1.45;;
21611;SDS011;47005;52.292;13.452;2023-06-05T05:46:13;2.70;;;1.63;;
21611;SDS011;47005;52.292;13.452;2023-06-05T05:48:39;3.58;;;1.80;;
21611;SDS011;47005;52.292;13.452;2023-06-05T05:51:05;4.63;;;1.88;;
21611;SDS011;47005;52.292;13.452;2023-06-05T05:53:31;3.38;;;1.95;;
21611;SDS011;47005;52.292;13.452;2023-06-05T05:55:57;3.40;;;1.63;;
21611;SDS011;47005;52.292;13.452;2023-06-05T05:58:23;6.68;;;1.50;;
21611;SDS011;47005;52.292;13.452;2023-06-05T06:00:49;6.50;;;1.77;;
21611;SDS011;47005;52.292;13.452;2023-06-05T06:03:15;4.10;;;1.90;;
21611;SDS011;47005;52.292;13.452;2023-06-05T06:05:41;3.75;;;1.60;;
21611;SDS011;47005;52.292;13.452;2023-06-05T06:08:07;6.65;;;2.40;;
21611;SDS011;47005;52.292;13.452;2023-06-05T06:10:33;4.15;;;2.20;;
21611;SDS011;47005;52.292;13.452;2023-06-05T06:12:59;3.58;;;2.10;;
21611;SDS011;47005;52.292;13.452;2023-06-05T06:15:25;5.90;;;1.73;;
21611;SDS011;47005;52.292;13.452;2023-06-05T06:17:52;3.20;;;2.17;;
21611;SDS011;47005;52.292;13.452;2023-06-05T06:20:18;3.00;;;1.60;;
21611;SDS011;47005;52.292;13.452;2023-06-05T06:22:44;5.47;;;1.75;;
21611;SDS011;47005;52.292;13.452;2023-06-05T06:25:10;8.20;;;2.00;;
21611;SDS011;47005;52.292;13.452;2023-06-05T06:27:37;3.88;;;1.83;;
21611;SDS011;47005;52.292;13.452;2023-06-05T06:30:03;3.83;;;2.05;;
21611;SDS011;47005;52.292;13.452;2023-06-05T06:32:30;4.38;;;1.70;;
21611;SDS011;47005;52.292;13.452;2023-06-05T06:34:56;3.67;;;2.20;;
21611;SDS011;47005;52.292;13.452;2023-06-05T06:37:22;2.85;;;1.77;;
21611;SDS011;47005;52.292;13.452;2023-06-05T06:39:48;2.88;;;1.65;;
21611;SDS011;47005;52.292;13.452;2023-06-05T06:42:14;3.10;;;1.80;;
21611;SDS011;47005;52.292;13.452;2023-06-05T06:44:39;5.25;;;1.95;;
21611;SDS011;47005;52.292;13.452;2023-06-05T06:47:06;5.78;;;1.63;;
21611;SDS011;47005;52.292;13.452;2023-06-05T06:49:36;4.47;;;1.83;;
21611;SDS011;47005;52.292;13.452;2023-06-05T06:52:01;4.57;;;1.90;;
21611;SDS011;47005;52.292;13.452;2023-06-05T06:54:27;5.43;;;1.58;;
21611;SDS011;47005;52.292;13.452;2023-06-05T06:56:56;2.80;;;1.50;;
21611;SDS011;47005;52.292;13.452;2023-06-05T06:59:22;2.30;;;1.30;;
21611;SDS011;47005;52.292;13.452;2023-06-05T07:04:43;2.67;;;1.55;;
21611;SDS011;47005;52.292;13.452;2023-06-05T07:07:09;3.33;;;1.55;;
21611;SDS011;47005;52.292;13.452;2023-06-05T07:09:39;3.92;;;1.85;;
21611;SDS011;47005;52.292;13.452;2023-06-05T07:12:07;3.33;;;1.55;;
21611;SDS011;47005;52.292;13.452;2023-06-05T07:14:34;4.68;;;1.67;;
21611;SDS011;47005;52.292;13.452;2023-06-05T07:17:00;3.97;;;1.63;;
21611;SDS011;47005;52.292;13.452;2023-06-05T07:19:29;2.33;;;1.40;;
21611;SDS011;47005;52.292;13.452;2023-06-05T07:21:59;2.97;;;1.40;;
21611;SDS011;47005;52.292;13.452;2023-06-05T07:24:27;4.63;;;1.70;;
21611;SDS011;47005;52.292;13.452;2023-06-05T07:26:54;4.35;;;2.10;;
21611;SDS011;47005;52.292;13.452;2023-06-05T07:29:21;6.30;;;1.80;;
21611;SDS011;47005;52.292;13.452;2023-06-05T07:31:49;4.72;;;1.40;;
21611;SDS011;47005;52.292;13.452;2023-06-05T07:34:16;3.72;;;1.67;;
21611;SDS011;47005;52.292;13.452;2023-06-05T07:36:43;2.78;;;1.40;;
21611;SDS011;47005;52.292;13.452;2023-06-05T07:39:10;3.90;;;1.35;;
21611;SDS011;47005;52.292;13.452;2023-06-05T07:41:37;2.40;;;1.58;;
21611;SDS011;47005;52.292;13.452;2023-06-05T07:44:04;4.25;;;1.63;;
21611;SDS011;47005;52.292;13.452;2023-06-05T07:46:32;4.00;;;1.80;;
21611;SDS011;47005;52.292;13.452;2023-06-05T07:48:58;2.58;;;1.38;;
21611;SDS011;47005;52.292;13.452;2023-06-05T07:51:23;2.58;;;1.55;;
21611;SDS011;47005;52.292;13.452;2023-06-05T07:53:50;8.93;;;1.98;;
21611;SDS011;47005;52.292;13.452;2023-06-05T07:56:15;3.10;;;1.27;;
21611;SDS011;47005;52.292;13.452;2023-06-05T07:58:41;3.20;;;1.48;;
21611;SDS011;47005;52.292;13.452;2023-06-05T08:01:07;6.43;;;1.30;;
21611;SDS011;47005;52.292;13.452;2023-06-05T08:03:33;4.60;;;1.75;;
21611;SDS011;47005;52.292;13.452;2023-06-05T08:05:59;3.75;;;1.50;;
21611;SDS011;47005;52.292;13.452;2023-06-05T08:08:24;3.55;;;1.55;;
21611;SDS011;47005;52.292;13.452;2023-06-05T08:10:50;2.13;;;1.40;;
21611;SDS011;47005;52.292;13.452;2023-06-05T08:13:16;5.40;;;1.65;;
21611;SDS011;47005;52.292;13.452;2023-06-05T08:15:42;5.45;;;1.45;;
21611;SDS011;47005;52.292;13.452;2023-06-05T08:18:07;5.32;;;1.48;;
21611;SDS011;47005;52.292;13.452;2023-06-05T08:20:34;3.03;;;1.23;;
21611;SDS011;47005;52.292;13.452;2023-06-05T08:23:00;4.57;;;1.23;;
21611;SDS011;47005;52.292;13.452;2023-06-05T08:25:26;3.17;;;1.33;;
21611;SDS011;47005;52.292;13.452;2023-06-05T08:27:52;4.75;;;1.60;;
21611;SDS011;47005;52.292;13.452;2023-06-05T08:30:18;1.77;;;1.20;;
21611;SDS011;47005;52.292;13.452;2023-06-05T08:32:44;2.28;;;1.30;;
21611;SDS011;47005;52.292;13.452;2023-06-05T08:35:10;2.97;;;1.48;;
21611;SDS011;47005;52.292;13.452;2023-06-05T08:37:37;3.90;;;1.23;;
21611;SDS011;47005;52.292;13.452;2023-06-05T08:40:03;2.50;;;1.38;;
21611;SDS011;47005;52.292;13.452;2023-06-05T08:42:33;2.55;;;1.25;;
21611;SDS011;47005;52.292;13.452;2023-06-05T08:44:59;4.43;;;1.40;;
21611;SDS011;47005;52.292;13.452;2023-06-05T08:47:26;2.70;;;1.40;;
21611;SDS011;47005;52.292;13.452;2023-06-05T08:49:55;10.32;;;1.73;;
21611;SDS011;47005;52.292;13.452;2023-06-05T08:52:22;2.78;;;1.30;;
21611;SDS011;47005;52.292;13.452;2023-06-05T08:54:49;2.72;;;1.15;;
21611;SDS011;47005;52.292;13.452;2023-06-05T08:57:15;2.55;;;1.50;;
21611;SDS011;47005;52.292;13.452;2023-06-05T08:59:41;5.97;;;1.52;;
21611;SDS011;47005;52.292;13.452;2023-06-05T09:02:08;2.40;;;1.13;;
21611;SDS011;47005;52.292;13.452;2023-06-05T09:04:35;5.57;;;1.25;;
21611;SDS011;47005;52.292;13.452;2023-06-05T09:07:00;3.78;;;1.60;;
21611;SDS011;47005;52.292;13.452;2023-06-05T09:09:26;4.03;;;1.38;;
21611;SDS011;47005;52.292;13.452;2023-06-05T09:14:31;5.75;;;1.45;;
21611;SDS011;47005;52.292;13.452;2023-06-05T09:16:58;4.75;;;1.30;;
21611;SDS011;47005;52.292;13.452;2023-06-05T09:19:25;1.75;;;1.08;;
21611;SDS011;47005;52.292;13.452;2023-06-05T09:22:05;1.52;;;1.00;;
21611;SDS011;47005;52.292;13.452;2023-06-05T09:24:33;2.35;;;1.17;;
21611;SDS011;47005;52.292;13.452;2023-06-05T09:27:06;4.63;;;1.60;;
21611;SDS011;47005;52.292;13.452;2023-06-05T09:29:35;9.07;;;1.50;;
21611;SDS011;47005;52.292;13.452;2023-06-05T09:32:05;4.88;;;1.20;;
21611;SDS011;47005;52.292;13.452;2023-06-05T09:34:40;2.10;;;1.27;;
21611;SDS011;47005;52.292;13.452;2023-06-05T09:37:07;2.45;;;1.17;;
21611;SDS011;47005;52.292;13.452;2023-06-05T09:39:35;3.63;;;1.60;;
21611;SDS011;47005;52.292;13.452;2023-06-05T09:42:02;2.13;;;1.30;;
21611;SDS011;47005;52.292;13.452;2023-06-05T09:44:28;3.50;;;1.50;;
21611;SDS011;47005;52.292;13.452;2023-06-05T09:47:05;3.85;;;1.50;;
21611;SDS011;47005;52.292;13.452;2023-06-05T09:52:07;6.18;;;1.73;;
21611;SDS011;47005;52.292;13.452;2023-06-05T09:54:38;5.53;;;1.90;;
21611;SDS011;47005;52.292;13.452;2023-06-05T09:57:07;3.58;;;1.25;;
21611;SDS011;47005;52.292;13.452;2023-06-05T09:59:55;1.83;;;1.02;;
21611;SDS011;47005;52.292;13.452;2023-06-05T10:02:21;8.82;;;1.60;;
21611;SDS011;47005;52.292;13.452;2023-06-05T10:05:00;4.93;;;1.27;;
21611;SDS011;47005;52.292;13.452;2023-06-05T10:07:29;3.45;;;1.55;;
21611;SDS011;47005;52.292;13.452;2023-06-05T10:09:57;2.72;;;1.30;;
21611;SDS011;47005;52.292;13.452;2023-06-05T10:12:23;2.35;;;1.33;;
21611;SDS011;47005;52.292;13.452;2023-06-05T10:14:52;5.80;;;1.67;;
21611;SDS011;47005;52.292;13.452;2023-06-05T10:17:20;4.82;;;1.52;;
21611;SDS011;47005;52.292;13.452;2023-06-05T10:19:47;7.75;;;1.40;;
21611;SDS011;47005;52.292;13.452;2023-06-05T10:22:13;4.03;;;1.15;;
21611;SDS011;47005;52.292;13.452;2023-06-05T10:24:41;3.08;;;1.52;;
21611;SDS011;47005;52.292;13.452;2023-06-05T10:40:25;2.67;;;1.40;;
21611;SDS011;47005;52.292;13.452;2023-06-05T10:42:51;3.47;;;1.98;;
21611;SDS011;47005;52.292;13.452;2023-06-05T10:45:29;3.30;;;1.10;;
21611;SDS011;47005;52.292;13.452;2023-06-05T10:47:58;2.97;;;1.70;;
21611;SDS011;47005;52.292;13.452;2023-06-05T10:50:25;4.55;;;1.60;;
21611;SDS011;47005;52.292;13.452;2023-06-05T10:52:52;3.28;;;1.48;;
21611;SDS011;47005;52.292;13.452;2023-06-05T10:55:20;3.60;;;1.35;;
21611;SDS011;47005;52.292;13.452;2023-06-05T11:00:35;7.28;;;1.77;;
21611;SDS011;47005;52.292;13.452;2023-06-05T11:03:33;3.10;;;1.73;;
21611;SDS011;47005;52.292;13.452;2023-06-05T11:06:21;2.70;;;1.27;;
21611;SDS011;47005;52.292;13.452;2023-06-05T11:09:10;1.92;;;1.25;;
21611;SDS011;47005;52.292;13.452;2023-06-05T11:14:44;3.47;;;1.73;;
21611;SDS011;47005;52.292;13.452;2023-06-05T11:17:26;2.63;;;1.15;;
21611;SDS011;47005;52.292;13.452;2023-06-05T11:19:52;3.65;;;1.70;;
21611;SDS011;47005;52.292;13.452;2023-06-05T11:22:18;3.15;;;1.83;;
21611;SDS011;47005;52.292;13.452;2023-06-05T11:24:43;2.30;;;1.23;;
21611;SDS011;47005;52.292;13.452;2023-06-05T11:27:40;2.28;;;1.45;;
21611;SDS011;47005;52.292;13.452;2023-06-05T11:30:15;6.13;;;1.90;;
21611;SDS011;47005;52.292;13.452;2023-06-05T11:32:45;2.30;;;1.63;;
21611;SDS011;47005;52.292;13.452;2023-06-05T11:35:11;3.75;;;1.92;;
21611;SDS011;47005;52.292;13.452;2023-06-05T11:37:38;5.90;;;1.77;;
21611;SDS011;47005;52.292;13.452;2023-06-05T11:40:05;3.80;;;1.63;;
21611;SDS011;47005;52.292;13.452;2023-06-05T11:42:38;3.47;;;1.85;;
21611;SDS011;47005;52.292;13.452;2023-06-05T11:45:11;3.50;;;1.10;;
21611;SDS011;47005;52.292;13.452;2023-06-05T11:47:37;2.60;;;1.30;;
21611;SDS011;47005;52.292;13.452;2023-06-05T11:50:10;3.63;;;1.40;;
21611;SDS011;47005;52.292;13.452;2023-06-05T11:52:37;4.63;;;1.92;;
21611;SDS011;47005;52.292;13.452;2023-06-05T11:55:16;3.03;;;1.52;;
21611;SDS011;47005;52.292;13.452;2023-06-05T11:57:47;2.58;;;1.50;;
21611;SDS011;47005;52.292;13.452;2023-06-05T12:00:14;3.95;;;1.45;;
21611;SDS011;47005;52.292;13.452;2023-06-05T12:02:47;4.85;;;1.95;;
21611;SDS011;47005;52.292;13.452;2023-06-05T12:05:14;3.63;;;1.73;;
21611;SDS011;47005;52.292;13.452;2023-06-05T12:07:39;2.53;;;1.40;;
21611;SDS011;47005;52.292;13.452;2023-06-05T12:10:07;3.75;;;1.50;;
21611;SDS011;47005;52.292;13.452;2023-06-05T12:12:34;3.35;;;2.10;;
21611;SDS011;47005;52.292;13.452;2023-06-05T12:15:13;3.08;;;1.40;;
21611;SDS011;47005;52.292;13.452;2023-06-05T12:17:39;4.60;;;1.67;;
21611;SDS011;47005;52.292;13.452;2023-06-05T12:20:05;2.35;;;1.35;;
21611;SDS011;47005;52.292;13.452;2023-06-05T12:22:33;2.22;;;1.27;;
21611;SDS011;47005;52.292;13.452;2023-06-05T12:27:44;2.83;;;1.58;;
21611;SDS011;47005;52.292;13.452;2023-06-05T12:30:10;3.00;;;1.70;;
21611;SDS011;47005;52.292;13.452;2023-06-05T12:32:37;3.28;;;1.98;;
21611;SDS011;47005;52.292;13.452;2023-06-05T12:35:23;2.97;;;1.60;;
21611;SDS011;47005;52.292;13.452;2023-06-05T12:37:58;3.10;;;1.85;;
21611;SDS011;47005;52.292;13.452;2023-06-05T12:40:24;6.35;;;1.65;;
21611;SDS011;47005;52.292;13.452;2023-06-05T12:42:50;2.53;;;1.40;;
21611;SDS011;47005;52.292;13.452;2023-06-05T12:45:16;6.80;;;1.58;;
21611;SDS011;47005;52.292;13.452;2023-06-05T12:47:42;2.80;;;1.90;;
21611;SDS011;47005;52.292;13.452;2023-06-05T12:50:09;2.53;;;1.42;;
21611;SDS011;47005;52.292;13.452;2023-06-05T12:52:37;6.93;;;1.98;;
21611;SDS011;47005;52.292;13.452;2023-06-05T12:55:04;3.92;;;2.08;;
21611;SDS011;47005;52.292;13.452;2023-06-05T12:57:30;5.57;;;2.15;;
21611;SDS011;47005;52.292;13.452;2023-06-05T12:59:57;4.53;;;1.67;;
21611;SDS011;47005;52.292;13.452;2023-06-05T13:02:23;3.28;;;2.30;;
21611;SDS011;47005;52.292;13.452;2023-06-05T13:04:49;2.55;;;1.73;;
21611;SDS011;47005;52.292;13.452;2023-06-05T13:07:15;3.15;;;2.20;;
21611;SDS011;47005;52.292;13.452;2023-06-05T13:09:41;2.90;;;1.90;;
21611;SDS011;47005;52.292;13.452;2023-06-05T13:12:07;9.50;;;2.55;;
21611;SDS011;47005;52.292;13.452;2023-06-05T13:14:33;3.63;;;1.92;;
21611;SDS011;47005;52.292;13.452;2023-06-05T13:17:00;2.92;;;1.67;;
21611;SDS011;47005;52.292;13.452;2023-06-05T13:19:26;3.75;;;1.63;;
21611;SDS011;47005;52.292;13.452;2023-06-05T13:21:52;3.28;;;1.50;;
21611;SDS011;47005;52.292;13.452;2023-06-05T13:24:18;4.50;;;1.90;;
21611;SDS011;47005;52.292;13.452;2023-06-05T13:26:44;4.85;;;1.95;;
21611;SDS011;47005;52.292;13.452;2023-06-05T13:29:11;2.65;;;1.83;;
21611;SDS011;47005;52.292;13.452;2023-06-05T13:31:38;4.63;;;1.90;;
21611;SDS011;47005;52.292;13.452;2023-06-05T13:34:05;3.00;;;1.77;;
21611;SDS011;47005;52.292;13.452;2023-06-05T13:36:31;4.47;;;2.05;;
21611;SDS011;47005;52.292;13.452;2023-06-05T13:38:56;3.95;;;2.10;;
21611;SDS011;47005;52.292;13.452;2023-06-05T13:41:22;2.65;;;1.38;;
21611;SDS011;47005;52.292;13.452;2023-06-05T13:43:48;2.58;;;1.83;;
21611;SDS011;47005;52.292;13.452;2023-06-05T13:46:14;3.97;;;2.30;;
21611;SDS011;47005;52.292;13.452;2023-06-05T13:48:39;3.05;;;1.52;;
21611;SDS011;47005;52.292;13.452;2023-06-05T13:51:05;7.00;;;2.13;;
21611;SDS011;47005;52.292;13.452;2023-06-05T13:53:31;2.70;;;1.90;;
21611;SDS011;47005;52.292;13.452;2023-06-05T13:56:05;3.55;;;1.40;;
21611;SDS011;47005;52.292;13.452;2023-06-05T13:58:31;3.53;;;1.70;;
21611;SDS011;47005;52.292;13.452;2023-06-05T14:00:57;4.22;;;1.55;;
21611;SDS011;47005;52.292;13.452;2023-06-05T14:03:23;7.82;;;2.10;;
21611;SDS011;47005;52.292;13.452;2023-06-05T14:05:49;2.63;;;1.70;;
21611;SDS011;47005;52.292;13.452;2023-06-05T14:08:15;3.83;;;2.20;;
21611;SDS011;47005;52.292;13.452;2023-06-05T14:10:41;5.55;;;2.15;;
21611;SDS011;47005;52.292;13.452;2023-06-05T14:13:06;4.63;;;1.92;;
21611;SDS011;47005;52.292;13.452;2023-06-05T14:15:32;2.88;;;1.90;;
21611;SDS011;47005;52.292;13.452;2023-06-05T14:18:00;5.03;;;1.88;;
21611;SDS011;47005;52.292;13.452;2023-06-05T14:20:27;5.72;;;2.08;;
21611;SDS011;47005;52.292;13.452;2023-06-05T14:22:54;3.78;;;2.05;;
21611;SDS011;47005;52.292;13.452;2023-06-05T14:25:21;4.00;;;1.90;;
21611;SDS011;47005;52.292;13.452;2023-06-05T14:27:46;4.03;;;1.95;;
21611;SDS011;47005;52.292;13.452;2023-06-05T14:30:12;4.72;;;2.17;;
21611;SDS011;47005;52.292;13.452;2023-06-05T14:32:38;2.85;;;1.95;;
21611;SDS011;47005;52.292;13.452;2023-06-05T14:35:04;9.30;;;2.30;;
21611;SDS011;47005;52.292;13.452;2023-06-05T14:37:30;3.80;;;1.70;;
21611;SDS011;47005;52.292;13.452;2023-06-05T14:39:56;4.50;;;1.77;;
21611;SDS011;47005;52.292;13.452;2023-06-05T14:42:22;3.67;;;2.17;;
21611;SDS011;47005;52.292;13.452;2023-06-05T14:44:48;2.83;;;1.75;;
21611;SDS011;47005;52.292;13.452;2023-06-05T14:47:14;4.22;;;1.95;;
21611;SDS011;47005;52.292;13.452;2023-06-05T14:49:40;3.42;;;2.17;;
21611;SDS011;47005;52.292;13.452;2023-06-05T14:52:05;8.82;;;2.35;;
21611;SDS011;47005;52.292;13.452;2023-06-05T14:54:31;6.63;;;2.47;;
21611;SDS011;47005;52.292;13.452;2023-06-05T14:56:57;5.32;;;1.50;;
21611;SDS011;47005;52.292;13.452;2023-06-05T14:59:22;4.55;;;2.17;;
21611;SDS011;47005;52.292;13.452;2023-06-05T15:01:48;3.28;;;2.15;;
21611;SDS011;47005;52.292;13.452;2023-06-05T15:04:14;2.60;;;1.60;;
21611;SDS011;47005;52.292;13.452;2023-06-05T15:06:40;2.95;;;1.83;;
21611;SDS011;47005;52.292;13.452;2023-06-05T15:09:05;20.33;;;2.60;;